sensor_id;sensor_type;location;lat;lon;timestamp;pressure;altitude;pressure_sealevel;temperature;humidity
13387;BME280;6763;48.524;9.044;2023-02-23T00:00:11;97450.38;;;13.65;49.40
13387;BME280;6763;48.524;9.044;2023-02-23T00:02:48;97441.84;;;13.61;49.80
13387;BME280;6763;48.524;9.044;2023-02-23T00:05:17;97448.97;;;13.56;49.81
13387;BME280;6763;48.524;9.044;2023-02-23T00:07:43;97449.94;;;13.54;50.04
13387;BME280;6763;48.524;9.044;2023-02-23T00:10:13;97448.41;;;13.48;50.39
13387;BME280;6763;48.524;9.044;2023-02-23T00:12:40;97450.31;;;13.43;50.68
13387;BME280;6763;48.524;9.044;2023-02-23T00:15:07;97441.88;;;13.37;50.86
13387;BME280;6763;48.524;9.044;2023-02-23T00:17:34;97447.25;;;13.31;51.28
13387;BME280;6763;48.524;9.044;2023-02-23T00:20:06;97443.16;;;13.25;51.93
13387;BME280;6763;48.524;9.044;2023-02-23T00:22:33;97443.41;;;13.18;51.98
13387;BME280;6763;48.524;9.044;2023-02-23T00:24:58;97437.41;;;13.16;52.33
13387;BME280;6763;48.524;9.044;2023-02-23T00:27:24;97440.91;;;13.15;52.46
13387;BME280;6763;48.524;9.044;2023-02-23T00:29:50;97438.34;;;13.13;52.55
13387;BME280;6763;48.524;9.044;2023-02-23T00:32:16;97432.38;;;13.11;52.44
13387;BME280;6763;48.524;9.044;2023-02-23T00:34:45;97432.38;;;13.11;52.78
13387;BME280;6763;48.524;9.044;2023-02-23T00:37:13;97434.97;;;13.11;52.45
13387;BME280;6763;48.524;9.044;2023-02-23T00:39:39;97434.00;;;13.14;52.79
13387;BME280;6763;48.524;9.044;2023-02-23T00:42:04;97435.72;;;13.15;53.06
13387;BME280;6763;48.524;9.044;2023-02-23T00:44:31;97434.00;;;13.14;52.88
13387;BME280;6763;48.524;9.044;2023-02-23T00:46:58;97432.38;;;13.11;53.56
13387;BME280;6763;48.524;9.044;2023-02-23T00:49:23;97430.66;;;13.10;53.43
13387;BME280;6763;48.524;9.044;2023-02-23T00:51:49;97421.22;;;13.07;53.57
13387;BME280;6763;48.524;9.044;2023-02-23T00:54:17;97429.94;;;13.07;53.66
13387;BME280;6763;48.524;9.044;2023-02-23T00:56:43;97423.84;;;13.06;53.88
13387;BME280;6763;48.524;9.044;2023-02-23T00:59:09;97427.28;;;13.08;53.94
13387;BME280;6763;48.524;9.044;2023-02-23T01:01:34;97426.38;;;13.09;54.07
13387;BME280;6763;48.524;9.044;2023-02-23T01:04:02;97422.03;;;13.10;54.17
13387;BME280;6763;48.524;9.044;2023-02-23T01:06:27;97424.50;;;13.13;54.17
13387;BME280;6763;48.524;9.044;2023-02-23T01:08:52;97424.47;;;13.14;54.07
13387;BME280;6763;48.524;9.044;2023-02-23T01:11:26;97426.13;;;13.17;53.87
13387;BME280;6763;48.524;9.044;2023-02-23T01:13:59;97423.53;;;13.17;53.59
13387;BME280;6763;48.524;9.044;2023-02-23T01:16:27;97423.47;;;13.18;54.25
13387;BME280;6763;48.524;9.044;2023-02-23T01:18:55;97426.06;;;13.18;54.43
13387;BME280;6763;48.524;9.044;2023-02-23T01:21:32;97422.56;;;13.19;54.12
13387;BME280;6763;48.524;9.044;2023-02-23T01:23:58;97424.28;;;13.20;54.09
13387;BME280;6763;48.524;9.044;2023-02-23T01:26:26;97416.41;;;13.22;54.03
13387;BME280;6763;48.524;9.044;2023-02-23T01:28:57;97422.47;;;13.22;54.29
13387;BME280;6763;48.524;9.044;2023-02-23T01:31:23;97417.28;;;13.22;54.14
13387;BME280;6763;48.524;9.044;2023-02-23T01:33:57;97420.75;;;13.21;53.97
13387;BME280;6763;48.524;9.044;2023-02-23T01:36:23;97419.00;;;13.22;54.62
13387;BME280;6763;48.524;9.044;2023-02-23T01:38:53;97417.31;;;13.21;54.22
13387;BME280;6763;48.524;9.044;2023-02-23T01:41:21;97420.72;;;13.23;54.41
13387;BME280;6763;48.524;9.044;2023-02-23T01:43:58;97416.31;;;13.25;54.05
13387;BME280;6763;48.524;9.044;2023-02-23T01:46:24;97418.06;;;13.24;54.47
13387;BME280;6763;48.524;9.044;2023-02-23T01:48:50;97418.00;;;13.26;54.51
13387;BME280;6763;48.524;9.044;2023-02-23T01:51:19;97417.09;;;13.27;54.16
13387;BME280;6763;48.524;9.044;2023-02-23T01:53:55;97409.38;;;13.25;54.38
13387;BME280;6763;48.524;9.044;2023-02-23T01:56:25;97412.94;;;13.23;55.00
13387;BME280;6763;48.524;9.044;2023-02-23T01:58:54;97419.06;;;13.20;55.12
13387;BME280;6763;48.524;9.044;2023-02-23T02:01:22;97413.97;;;13.17;54.96
13387;BME280;6763;48.524;9.044;2023-02-23T02:03:52;97413.16;;;13.15;55.26
13387;BME280;6763;48.524;9.044;2023-02-23T02:06:20;97415.72;;;13.17;55.02
13387;BME280;6763;48.524;9.044;2023-02-23T02:08:51;97409.75;;;13.15;55.17
13387;BME280;6763;48.524;9.044;2023-02-23T02:11:21;97413.16;;;13.15;55.38
13387;BME280;6763;48.524;9.044;2023-02-23T02:13:59;97412.38;;;13.13;55.43
13387;BME280;6763;48.524;9.044;2023-02-23T02:32:37;97405.59;;;13.09;56.12
13387;BME280;6763;48.524;9.044;2023-02-23T02:40:45;97396.00;;;13.11;55.90
13387;BME280;6763;48.524;9.044;2023-02-23T02:45:55;97394.19;;;13.13;56.09
13387;BME280;6763;48.524;9.044;2023-02-23T02:56:08;97394.09;;;13.16;55.89
13387;BME280;6763;48.524;9.044;2023-02-23T02:58:36;97395.69;;;13.20;55.62
13387;BME280;6763;48.524;9.044;2023-02-23T03:01:08;97400.75;;;13.23;55.98
13387;BME280;6763;48.524;9.044;2023-02-23T03:03:55;97389.53;;;13.23;56.18
13387;BME280;6763;48.524;9.044;2023-02-23T03:06:47;97391.19;;;13.25;55.84
13387;BME280;6763;48.524;9.044;2023-02-23T03:12:39;97391.97;;;13.27;56.06
13387;BME280;6763;48.524;9.044;2023-02-23T03:15:44;97402.28;;;13.29;55.74
13387;BME280;6763;48.524;9.044;2023-02-23T03:21:51;97386.69;;;13.29;56.00
13387;BME280;6763;48.524;9.044;2023-02-23T03:27:40;97390.94;;;13.31;55.59
13387;BME280;6763;48.524;9.044;2023-02-23T03:30:46;97386.69;;;13.29;55.99
13387;BME280;6763;48.524;9.044;2023-02-23T03:33:42;97394.38;;;13.32;56.19
13387;BME280;6763;48.524;9.044;2023-02-23T03:36:32;97396.09;;;13.33;55.99
13387;BME280;6763;48.524;9.044;2023-02-23T03:39:28;97396.88;;;13.35;55.91
13387;BME280;6763;48.524;9.044;2023-02-23T03:42:16;97393.41;;;13.36;55.99
13387;BME280;6763;48.524;9.044;2023-02-23T03:45:12;97393.41;;;13.36;55.37
13387;BME280;6763;48.524;9.044;2023-02-23T03:47:58;97396.88;;;13.35;55.51
13387;BME280;6763;48.524;9.044;2023-02-23T03:50:47;97396.03;;;13.34;55.74
13387;BME280;6763;48.524;9.044;2023-02-23T03:53:40;97391.78;;;13.32;56.00
13387;BME280;6763;48.524;9.044;2023-02-23T03:56:29;97404.00;;;13.30;55.90
13387;BME280;6763;48.524;9.044;2023-02-23T03:59:17;97402.28;;;13.29;56.26
13387;BME280;6763;48.524;9.044;2023-02-23T04:02:05;97399.78;;;13.26;56.34
13387;BME280;6763;48.524;9.044;2023-02-23T04:04:53;97397.25;;;13.24;56.67
13387;BME280;6763;48.524;9.044;2023-02-23T04:07:40;97396.47;;;13.22;56.31
13387;BME280;6763;48.524;9.044;2023-02-23T04:10:26;97395.63;;;13.22;56.41
13387;BME280;6763;48.524;9.044;2023-02-23T04:13:14;97405.16;;;13.21;56.44
13387;BME280;6763;48.524;9.044;2023-02-23T04:16:03;97399.13;;;13.21;56.35
13387;BME280;6763;48.524;9.044;2023-02-23T04:18:32;97398.13;;;13.25;56.20
13387;BME280;6763;48.524;9.044;2023-02-23T04:20:59;97394.59;;;13.26;56.50
13387;BME280;6763;48.524;9.044;2023-02-23T04:23:25;97390.31;;;13.25;56.77
13387;BME280;6763;48.524;9.044;2023-02-23T04:25:52;97401.56;;;13.25;56.80
13387;BME280;6763;48.524;9.044;2023-02-23T04:28:18;97401.56;;;13.25;56.46
13387;BME280;6763;48.524;9.044;2023-02-23T04:30:44;97399.78;;;13.26;56.81
13387;BME280;6763;48.524;9.044;2023-02-23T04:33:10;97398.91;;;13.27;56.35
13387;BME280;6763;48.524;9.044;2023-02-23T04:35:35;97399.69;;;13.29;56.54
13387;BME280;6763;48.524;9.044;2023-02-23T04:38:01;97404.84;;;13.30;56.16
13387;BME280;6763;48.524;9.044;2023-02-23T04:40:27;97405.69;;;13.31;56.52
13387;BME280;6763;48.524;9.044;2023-02-23T04:42:52;97397.84;;;13.32;56.73
13387;BME280;6763;48.524;9.044;2023-02-23T04:45:18;97409.91;;;13.33;56.06
13387;BME280;6763;48.524;9.044;2023-02-23T04:47:44;97397.78;;;13.34;56.55
13387;BME280;6763;48.524;9.044;2023-02-23T04:50:10;97402.94;;;13.35;56.41
13387;BME280;6763;48.524;9.044;2023-02-23T04:52:36;97411.47;;;13.39;56.26
13387;BME280;6763;48.524;9.044;2023-02-23T04:55:06;97407.06;;;13.41;56.05
13387;BME280;6763;48.524;9.044;2023-02-23T04:57:33;97409.69;;;13.41;56.50
13387;BME280;6763;48.524;9.044;2023-02-23T04:59:59;97403.66;;;13.39;56.77
13387;BME280;6763;48.524;9.044;2023-02-23T05:02:24;97406.31;;;13.37;56.31
13387;BME280;6763;48.524;9.044;2023-02-23T05:04:50;97422.00;;;13.36;56.93
13387;BME280;6763;48.524;9.044;2023-02-23T05:07:16;97415.13;;;13.33;56.61
13387;BME280;6763;48.524;9.044;2023-02-23T05:09:41;97414.34;;;13.31;56.91
13387;BME280;6763;48.524;9.044;2023-02-23T05:12:07;97416.06;;;13.31;56.75
13387;BME280;6763;48.524;9.044;2023-02-23T05:14:32;97409.19;;;13.30;57.08
13387;BME280;6763;48.524;9.044;2023-02-23T05:16:57;97401.50;;;13.27;56.87
13387;BME280;6763;48.524;9.044;2023-02-23T05:19:23;97416.31;;;13.25;56.85
13387;BME280;6763;48.524;9.044;2023-02-23T05:21:48;97407.66;;;13.24;56.85
13387;BME280;6763;48.524;9.044;2023-02-23T05:24:15;97407.72;;;13.23;56.72
13387;BME280;6763;48.524;9.044;2023-02-23T05:26:41;97406.00;;;13.22;56.72
13387;BME280;6763;48.524;9.044;2023-02-23T05:29:07;97404.28;;;13.22;57.16
13387;BME280;6763;48.524;9.044;2023-02-23T05:31:32;97399.97;;;13.21;56.92
13387;BME280;6763;48.524;9.044;2023-02-23T05:33:57;97404.31;;;13.21;57.16
13387;BME280;6763;48.524;9.044;2023-02-23T05:36:23;97409.50;;;13.21;57.55
13387;BME280;6763;48.524;9.044;2023-02-23T05:38:48;97401.84;;;13.18;57.25
13387;BME280;6763;48.524;9.044;2023-02-23T05:41:17;97403.53;;;13.19;57.04
13387;BME280;6763;48.524;9.044;2023-02-23T05:43:42;97407.03;;;13.18;56.91
13387;BME280;6763;48.524;9.044;2023-02-23T05:46:14;97407.06;;;13.16;57.47
13387;BME280;6763;48.524;9.044;2023-02-23T05:48:40;97405.50;;;13.12;57.05
13387;BME280;6763;48.524;9.044;2023-02-23T05:51:07;97403.84;;;13.10;57.12
13387;BME280;6763;48.524;9.044;2023-02-23T05:53:34;97403.91;;;13.08;57.67
13387;BME280;6763;48.524;9.044;2023-02-23T05:56:00;97401.34;;;13.05;57.64
13387;BME280;6763;48.524;9.044;2023-02-23T05:58:26;97404.81;;;13.05;58.00
13387;BME280;6763;48.524;9.044;2023-02-23T06:00:51;97410.09;;;13.02;58.41
13387;BME280;6763;48.524;9.044;2023-02-23T06:03:17;97413.72;;;12.98;57.67
13387;BME280;6763;48.524;9.044;2023-02-23T06:05:51;97415.53;;;12.96;57.74
13387;BME280;6763;48.524;9.044;2023-02-23T06:08:17;97416.50;;;12.94;57.88
13387;BME280;6763;48.524;9.044;2023-02-23T06:10:43;97406.19;;;12.91;58.28
13387;BME280;6763;48.524;9.044;2023-02-23T06:13:08;97419.22;;;12.89;58.22
13387;BME280;6763;48.524;9.044;2023-02-23T06:15:34;97414.03;;;12.89;58.14
13387;BME280;6763;48.524;9.044;2023-02-23T06:17:59;97414.97;;;12.87;58.04
13387;BME280;6763;48.524;9.044;2023-02-23T06:20:25;97421.09;;;12.86;58.28
13387;BME280;6763;48.524;9.044;2023-02-23T06:22:50;97428.91;;;12.84;58.08
13387;BME280;6763;48.524;9.044;2023-02-23T06:25:15;97428.13;;;12.82;57.94
13387;BME280;6763;48.524;9.044;2023-02-23T06:27:41;97428.19;;;12.81;58.40
13387;BME280;6763;48.524;9.044;2023-02-23T06:30:08;97435.97;;;12.81;57.93
13387;BME280;6763;48.524;9.044;2023-02-23T06:32:34;97432.53;;;12.80;57.83
13387;BME280;6763;48.524;9.044;2023-02-23T06:35:00;97433.38;;;12.81;58.22
13387;BME280;6763;48.524;9.044;2023-02-23T06:37:26;97427.34;;;12.80;58.34
13387;BME280;6763;48.524;9.044;2023-02-23T06:39:51;97430.78;;;12.81;58.50
13387;BME280;6763;48.524;9.044;2023-02-23T06:42:16;97433.31;;;12.82;58.24
13387;BME280;6763;48.524;9.044;2023-02-23T06:44:42;97440.16;;;12.85;58.17
13387;BME280;6763;48.524;9.044;2023-02-23T06:47:07;97438.34;;;12.87;58.07
13387;BME280;6763;48.524;9.044;2023-02-23T06:49:33;97452.19;;;12.87;58.51
13387;BME280;6763;48.524;9.044;2023-02-23T06:51:58;97444.41;;;12.87;58.17
13387;BME280;6763;48.524;9.044;2023-02-23T06:54:24;97451.34;;;12.87;58.06
13387;BME280;6763;48.524;9.044;2023-02-23T06:56:51;97460.00;;;12.87;58.21
13387;BME280;6763;48.524;9.044;2023-02-23T06:59:17;97463.38;;;12.89;58.69
13387;BME280;6763;48.524;9.044;2023-02-23T07:01:42;97470.22;;;12.92;58.64
13387;BME280;6763;48.524;9.044;2023-02-23T07:04:09;97468.44;;;12.94;58.26
13387;BME280;6763;48.524;9.044;2023-02-23T07:06:34;97473.63;;;12.94;58.30
13387;BME280;6763;48.524;9.044;2023-02-23T07:09:00;97470.97;;;12.95;58.66
13387;BME280;6763;48.524;9.044;2023-02-23T07:11:25;97470.97;;;12.95;58.54
13387;BME280;6763;48.524;9.044;2023-02-23T07:13:50;97476.88;;;13.00;58.58
13387;BME280;6763;48.524;9.044;2023-02-23T07:16:16;97473.22;;;13.06;58.85
13387;BME280;6763;48.524;9.044;2023-02-23T07:18:41;97480.00;;;13.12;58.47
13387;BME280;6763;48.524;9.044;2023-02-23T07:21:06;97481.53;;;13.17;58.48
13387;BME280;6763;48.524;9.044;2023-02-23T07:23:32;97475.34;;;13.21;58.65
13387;BME280;6763;48.524;9.044;2023-02-23T07:25:57;97477.72;;;13.27;58.76
13387;BME280;6763;48.524;9.044;2023-02-23T07:28:25;97482.66;;;13.35;58.21
13387;BME280;6763;48.524;9.044;2023-02-23T07:30:56;97488.44;;;13.43;58.21
13387;BME280;6763;48.524;9.044;2023-02-23T07:33:22;97484.66;;;13.51;58.55
13387;BME280;6763;48.524;9.044;2023-02-23T07:35:48;97479.16;;;13.60;58.19
13387;BME280;6763;48.524;9.044;2023-02-23T07:38:14;97484.06;;;13.68;57.79
13387;BME280;6763;48.524;9.044;2023-02-23T07:40:39;97485.63;;;13.74;57.80
13387;BME280;6763;48.524;9.044;2023-02-23T07:43:05;97486.38;;;13.77;57.79
13387;BME280;6763;48.524;9.044;2023-02-23T07:45:30;97476.50;;;13.85;57.81
13387;BME280;6763;48.524;9.044;2023-02-23T07:47:56;97471.84;;;13.95;57.61
13387;BME280;6763;48.524;9.044;2023-02-23T07:50:21;97473.97;;;14.07;57.73
13387;BME280;6763;48.524;9.044;2023-02-23T07:52:46;97471.72;;;14.21;57.68
13387;BME280;6763;48.524;9.044;2023-02-23T07:55:12;97472.97;;;14.34;57.30
13387;BME280;6763;48.524;9.044;2023-02-23T07:57:37;97467.19;;;14.48;57.22
13387;BME280;6763;48.524;9.044;2023-02-23T08:00:05;97465.00;;;14.60;56.80
13387;BME280;6763;48.524;9.044;2023-02-23T08:02:30;97463.75;;;14.69;56.47
13387;BME280;6763;48.524;9.044;2023-02-23T08:04:57;97470.38;;;14.77;56.50
13387;BME280;6763;48.524;9.044;2023-02-23T08:07:22;97468.22;;;14.87;56.16
13387;BME280;6763;48.524;9.044;2023-02-23T08:09:50;97473.72;;;15.01;55.91
13387;BME280;6763;48.524;9.044;2023-02-23T08:12:16;97470.56;;;15.15;55.86
13387;BME280;6763;48.524;9.044;2023-02-23T08:14:41;97468.41;;;15.24;55.55
13387;BME280;6763;48.524;9.044;2023-02-23T08:17:07;97466.50;;;15.28;55.21
13387;BME280;6763;48.524;9.044;2023-02-23T08:19:32;97475.00;;;15.33;55.36
13387;BME280;6763;48.524;9.044;2023-02-23T08:21:58;97478.25;;;15.38;55.07
13387;BME280;6763;48.524;9.044;2023-02-23T08:24:24;97482.53;;;15.39;54.32
13387;BME280;6763;48.524;9.044;2023-02-23T08:26:50;97482.53;;;15.39;54.58
13387;BME280;6763;48.524;9.044;2023-02-23T08:29:15;97479.81;;;15.42;54.42
13387;BME280;6763;48.524;9.044;2023-02-23T08:31:41;97483.19;;;15.45;54.26
13387;BME280;6763;48.524;9.044;2023-02-23T08:34:06;97477.56;;;15.55;54.28
13387;BME280;6763;48.524;9.044;2023-02-23T08:36:32;97480.69;;;15.63;54.02
13387;BME280;6763;48.524;9.044;2023-02-23T08:38:57;97476.09;;;15.68;53.55
13387;BME280;6763;48.524;9.044;2023-02-23T08:41:24;97479.31;;;15.74;53.83
13387;BME280;6763;48.524;9.044;2023-02-23T08:43:50;97476.38;;;15.82;53.55
13387;BME280;6763;48.524;9.044;2023-02-23T08:46:15;97480.38;;;15.89;53.34
13387;BME280;6763;48.524;9.044;2023-02-23T08:48:42;97481.78;;;15.96;53.09
13387;BME280;6763;48.524;9.044;2023-02-23T08:51:08;97474.56;;;16.02;53.06
13387;BME280;6763;48.524;9.044;2023-02-23T08:53:33;97481.09;;;16.11;52.92
13387;BME280;6763;48.524;9.044;2023-02-23T08:56:01;97479.78;;;16.21;52.45
13387;BME280;6763;48.524;9.044;2023-02-23T08:58:28;97482.81;;;16.31;52.44
13387;BME280;6763;48.524;9.044;2023-02-23T09:00:55;97487.59;;;16.40;52.22
13387;BME280;6763;48.524;9.044;2023-02-23T09:03:21;97485.47;;;16.48;52.07
13387;BME280;6763;48.524;9.044;2023-02-23T09:05:47;97488.63;;;16.56;51.37
13387;BME280;6763;48.524;9.044;2023-02-23T09:08:13;97481.28;;;16.64;51.54
13387;BME280;6763;48.524;9.044;2023-02-23T09:10:38;97494.81;;;16.72;51.34
13387;BME280;6763;48.524;9.044;2023-02-23T09:13:04;97486.63;;;16.80;50.88
13387;BME280;6763;48.524;9.044;2023-02-23T09:15:30;97489.75;;;16.86;50.70
13387;BME280;6763;48.524;9.044;2023-02-23T09:18:01;97492.72;;;16.97;50.36
13387;BME280;6763;48.524;9.044;2023-02-23T09:20:27;97488.81;;;17.06;50.02
13387;BME280;6763;48.524;9.044;2023-02-23T09:22:52;97489.97;;;17.17;49.53
13387;BME280;6763;48.524;9.044;2023-02-23T09:25:19;97481.56;;;17.28;49.26
13387;BME280;6763;48.524;9.044;2023-02-23T09:27:56;97485.28;;;17.41;49.32
13387;BME280;6763;48.524;9.044;2023-02-23T09:30:22;97483.22;;;17.65;49.27
13387;BME280;6763;48.524;9.044;2023-02-23T09:32:48;97483.22;;;17.97;48.56
13387;BME280;6763;48.524;9.044;2023-02-23T09:35:15;97483.78;;;18.20;47.87
13387;BME280;6763;48.524;9.044;2023-02-23T09:37:54;97485.88;;;18.29;47.24
13387;BME280;6763;48.524;9.044;2023-02-23T09:40:23;97470.69;;;18.35;46.86
13387;BME280;6763;48.524;9.044;2023-02-23T09:45:42;97480.75;;;18.43;45.88
13387;BME280;6763;48.524;9.044;2023-02-23T09:50:39;97474.63;;;18.75;44.81
13387;BME280;6763;48.524;9.044;2023-02-23T09:53:17;97477.56;;;18.85;43.38
13387;BME280;6763;48.524;9.044;2023-02-23T09:55:44;97481.03;;;18.85;43.64
13387;BME280;6763;48.524;9.044;2023-02-23T09:58:21;97475.00;;;18.83;43.11
13387;BME280;6763;48.524;9.044;2023-02-23T10:00:56;97475.78;;;18.85;43.47
13387;BME280;6763;48.524;9.044;2023-02-23T10:03:30;97481.97;;;18.84;43.31
13387;BME280;6763;48.524;9.044;2023-02-23T10:06:05;97482.06;;;18.83;42.58
13387;BME280;6763;48.524;9.044;2023-02-23T10:19:38;97477.69;;;19.87;41.09
13387;BME280;6763;48.524;9.044;2023-02-23T10:22:08;97478.63;;;20.00;40.99
13387;BME280;6763;48.524;9.044;2023-02-23T10:25:14;97480.22;;;20.45;40.46
13387;BME280;6763;48.524;9.044;2023-02-23T10:27:44;97479.84;;;21.04;39.61
13387;BME280;6763;48.524;9.044;2023-02-23T10:30:20;97475.56;;;21.94;38.27
13387;BME280;6763;48.524;9.044;2023-02-23T10:35:25;97467.94;;;24.16;34.99
13387;BME280;6763;48.524;9.044;2023-02-23T10:37:51;97462.28;;;25.07;33.26
13387;BME280;6763;48.524;9.044;2023-02-23T10:40:22;97461.50;;;25.59;31.76
13387;BME280;6763;48.524;9.044;2023-02-23T10:42:49;97461.88;;;25.96;31.19
13387;BME280;6763;48.524;9.044;2023-02-23T10:45:17;97454.53;;;26.39;30.07
13387;BME280;6763;48.524;9.044;2023-02-23T10:47:50;97450.22;;;26.78;29.53
13387;BME280;6763;48.524;9.044;2023-02-23T10:50:16;97450.69;;;27.02;29.32
13387;BME280;6763;48.524;9.044;2023-02-23T10:52:45;97442.84;;;27.39;28.73
13387;BME280;6763;48.524;9.044;2023-02-23T10:55:28;97441.81;;;27.79;27.74
13387;BME280;6763;48.524;9.044;2023-02-23T10:58:10;97436.75;;;27.95;27.50
13387;BME280;6763;48.524;9.044;2023-02-23T11:00:49;97436.19;;;27.91;27.42
13387;BME280;6763;48.524;9.044;2023-02-23T11:03:21;97441.38;;;28.02;27.23
13387;BME280;6763;48.524;9.044;2023-02-23T11:05:48;97438.38;;;28.24;27.03
13387;BME280;6763;48.524;9.044;2023-02-23T11:08:36;97433.72;;;28.54;26.30
13387;BME280;6763;48.524;9.044;2023-02-23T11:13:42;97425.06;;;28.79;24.23
13387;BME280;6763;48.524;9.044;2023-02-23T11:18:40;97421.13;;;28.56;24.01
13387;BME280;6763;48.524;9.044;2023-02-23T11:21:10;97422.28;;;28.44;23.98
13387;BME280;6763;48.524;9.044;2023-02-23T11:23:37;97423.38;;;28.23;24.21
13387;BME280;6763;48.524;9.044;2023-02-23T11:26:27;97423.25;;;27.50;24.54
13387;BME280;6763;48.524;9.044;2023-02-23T11:29:03;97417.28;;;26.60;25.26
13387;BME280;6763;48.524;9.044;2023-02-23T11:31:36;97422.44;;;25.92;26.03
13387;BME280;6763;48.524;9.044;2023-02-23T11:34:03;97418.13;;;25.08;27.15
13387;BME280;6763;48.524;9.044;2023-02-23T11:36:34;97425.38;;;24.19;28.54
13387;BME280;6763;48.524;9.044;2023-02-23T11:39:08;97414.25;;;23.58;29.40
13387;BME280;6763;48.524;9.044;2023-02-23T11:41:38;97414.94;;;23.14;30.07
13387;BME280;6763;48.524;9.044;2023-02-23T11:44:05;97416.81;;;22.77;30.81
13387;BME280;6763;48.524;9.044;2023-02-23T11:46:34;97407.03;;;22.43;31.46
13387;BME280;6763;48.524;9.044;2023-02-23T11:49:08;97406.13;;;22.19;31.91
13387;BME280;6763;48.524;9.044;2023-02-23T11:51:45;97417.13;;;22.00;32.11
13387;BME280;6763;48.524;9.044;2023-02-23T11:54:27;97413.84;;;21.84;32.46
13387;BME280;6763;48.524;9.044;2023-02-23T11:56:54;97409.84;;;21.66;32.69
13387;BME280;6763;48.524;9.044;2023-02-23T11:59:42;97407.75;;;21.58;33.07
13387;BME280;6763;48.524;9.044;2023-02-23T12:02:23;97410.59;;;21.68;33.03
13387;BME280;6763;48.524;9.044;2023-02-23T12:05:16;97408.28;;;21.76;33.03
13387;BME280;6763;48.524;9.044;2023-02-23T12:08:05;97405.66;;;21.89;33.17
13387;BME280;6763;48.524;9.044;2023-02-23T12:10:42;97404.81;;;21.88;33.04
13387;BME280;6763;48.524;9.044;2023-02-23T12:16:21;97402.06;;;21.77;32.81
13387;BME280;6763;48.524;9.044;2023-02-23T12:19:01;97395.84;;;21.78;32.94
13387;BME280;6763;48.524;9.044;2023-02-23T12:21:34;97399.09;;;21.82;32.79
13387;BME280;6763;48.524;9.044;2023-02-23T12:26:39;97395.53;;;21.95;32.70
13387;BME280;6763;48.524;9.044;2023-02-23T12:29:18;97389.41;;;21.95;32.70
13387;BME280;6763;48.524;9.044;2023-02-23T12:31:56;97389.66;;;21.92;32.32
13387;BME280;6763;48.524;9.044;2023-02-23T12:34:42;97388.66;;;21.80;32.56
13387;BME280;6763;48.524;9.044;2023-02-23T12:37:17;97396.69;;;21.79;32.72
13387;BME280;6763;48.524;9.044;2023-02-23T12:39:49;97386.66;;;21.71;32.56
13387;BME280;6763;48.524;9.044;2023-02-23T12:42:24;97387.50;;;21.59;32.48
13387;BME280;6763;48.524;9.044;2023-02-23T12:44:58;97381.59;;;21.43;32.50
13387;BME280;6763;48.524;9.044;2023-02-23T12:50:10;97382.03;;;21.24;32.96
13387;BME280;6763;48.524;9.044;2023-02-23T12:52:51;97376.13;;;21.21;32.92
13387;BME280;6763;48.524;9.044;2023-02-23T12:55:45;97372.13;;;21.15;32.88
13387;BME280;6763;48.524;9.044;2023-02-23T12:58:24;97372.31;;;21.12;32.81
13387;BME280;6763;48.524;9.044;2023-02-23T13:01:03;97367.72;;;21.16;32.92
13387;BME280;6763;48.524;9.044;2023-02-23T13:09:21;97367.13;;;20.98;33.14
13387;BME280;6763;48.524;9.044;2023-02-23T13:20:05;97354.59;;;21.01;32.84
13387;BME280;6763;48.524;9.044;2023-02-23T13:22:43;97357.34;;;21.00;32.96
13387;BME280;6763;48.524;9.044;2023-02-23T13:25:26;97362.91;;;20.95;33.14
13387;BME280;6763;48.524;9.044;2023-02-23T13:27:58;97363.84;;;20.94;33.48
13387;BME280;6763;48.524;9.044;2023-02-23T13:30:28;97363.31;;;20.89;34.08
13387;BME280;6763;48.524;9.044;2023-02-23T13:32:56;97362.88;;;20.83;34.17
13387;BME280;6763;48.524;9.044;2023-02-23T13:35:23;97371.91;;;20.79;34.97
13387;BME280;6763;48.524;9.044;2023-02-23T13:38:12;97367.47;;;20.67;35.21
13387;BME280;6763;48.524;9.044;2023-02-23T13:40:45;97364.19;;;20.63;35.36
13387;BME280;6763;48.524;9.044;2023-02-23T13:43:30;97377.63;;;20.59;35.65
13387;BME280;6763;48.524;9.044;2023-02-23T13:51:11;97369.66;;;20.33;36.68
13387;BME280;6763;48.524;9.044;2023-02-23T13:56:27;97366.06;;;20.34;36.82
13387;BME280;6763;48.524;9.044;2023-02-23T13:59:06;97358.19;;;20.34;37.04
13387;BME280;6763;48.524;9.044;2023-02-23T14:01:39;97361.84;;;20.32;37.15
13387;BME280;6763;48.524;9.044;2023-02-23T14:04:20;97356.50;;;20.33;37.09
13387;BME280;6763;48.524;9.044;2023-02-23T14:07:16;97353.03;;;20.33;36.95
13387;BME280;6763;48.524;9.044;2023-02-23T14:09:52;97354.50;;;20.37;36.97
13387;BME280;6763;48.524;9.044;2023-02-23T14:17:59;97353.81;;;20.48;36.13
13387;BME280;6763;48.524;9.044;2023-02-23T14:23:29;97337.97;;;20.49;35.80
13387;BME280;6763;48.524;9.044;2023-02-23T14:26:16;97342.38;;;20.49;35.84
13387;BME280;6763;48.524;9.044;2023-02-23T14:31:36;97338.22;;;20.45;35.74
13387;BME280;6763;48.524;9.044;2023-02-23T14:34:07;97342.22;;;20.37;35.60
13387;BME280;6763;48.524;9.044;2023-02-23T14:36:35;97338.56;;;20.26;35.71
13387;BME280;6763;48.524;9.044;2023-02-23T14:39:06;97342.63;;;20.17;36.15
13387;BME280;6763;48.524;9.044;2023-02-23T14:41:40;97340.31;;;20.13;36.35
13387;BME280;6763;48.524;9.044;2023-02-23T14:44:37;97345.56;;;20.13;36.65
13387;BME280;6763;48.524;9.044;2023-02-23T14:47:08;97340.56;;;20.22;36.45
13387;BME280;6763;48.524;9.044;2023-02-23T14:49:41;97345.22;;;20.31;36.07
13387;BME280;6763;48.524;9.044;2023-02-23T14:52:08;97347.34;;;20.39;35.85
13387;BME280;6763;48.524;9.044;2023-02-23T14:54:39;97340.97;;;20.43;35.75
13387;BME280;6763;48.524;9.044;2023-02-23T14:57:15;97337.19;;;20.47;35.75
13387;BME280;6763;48.524;9.044;2023-02-23T14:59:44;97342.25;;;20.50;35.83
13387;BME280;6763;48.524;9.044;2023-02-23T15:02:16;97342.91;;;20.54;35.58
13387;BME280;6763;48.524;9.044;2023-02-23T15:04:42;97347.31;;;20.53;35.42
13387;BME280;6763;48.524;9.044;2023-02-23T15:07:15;97341.53;;;20.48;35.27
13387;BME280;6763;48.524;9.044;2023-02-23T15:09:43;97349.66;;;20.31;35.66
13387;BME280;6763;48.524;9.044;2023-02-23T15:12:26;97350.69;;;20.14;36.09
13387;BME280;6763;48.524;9.044;2023-02-23T15:14:56;97342.34;;;20.08;36.32
13387;BME280;6763;48.524;9.044;2023-02-23T15:17:25;97346.97;;;20.04;36.01